Time;durP1;ratioP1;P1;durP2;ratioP2;P2;SDS_P1;SDS_P2;PMS_P1;PMS_P2;Temp;Humidity;BMP_temperature;BMP_pressure;BME280_temperature;BME280_humidity;BME280_pressure;Samples;Min_cycle;Max_cycle;Signal;HPM_P1;HPM_P2
2023/01/14 00:01:31;;;;;;;19.95;3.70;;;;;;;;;;5102489;28;20066;-72
2023/01/14 00:03:57;;;;;;;38.28;4.95;;;;;;;;;;5101306;28;20122;-73
2023/01/14 00:06:25;;;;;;;27.52;5.45;;;;;;;;;;5094804;28;20505;-73
2023/01/14 00:08:54;;;;;;;28.67;5.13;;;;;;;;;;5096282;28;20043;-73
2023/01/14 00:11:45;;;;;;;24.50;4.43;;;;;;;;;;5091495;28;20047;-73
2023/01/14 00:14:06;;;;;;;36.67;4.75;;;;;;;;;;5090794;28;20480;-73
2023/01/14 00:16:32;;;;;;;23.15;3.53;;;;;;;;;;5093976;28;20078;-74
2023/01/14 00:18:59;;;;;;;25.38;3.88;;;;;;;;;;5090809;28;20059;-73
2023/01/14 00:21:25;;;;;;;26.48;5.05;;;;;;;;;;5095938;28;20032;-73
2023/01/14 00:23:53;;;;;;;28.67;4.78;;;;;;;;;;5095614;28;20073;-73
2023/01/14 00:26:20;;;;;;;31.67;4.47;;;;;;;;;;5096978;28;20040;-73
2023/01/14 00:28:46;;;;;;;27.60;3.97;;;;;;;;;;5093860;28;20134;-73
2023/01/14 00:31:14;;;;;;;23.73;4.05;;;;;;;;;;5096722;28;20077;-73
2023/01/14 00:33:40;;;;;;;24.90;4.38;;;;;;;;;;5092153;28;20147;-73
2023/01/14 00:36:08;;;;;;;31.50;4.60;;;;;;;;;;5095193;28;20031;-73
2023/01/14 00:38:34;;;;;;;27.48;4.63;;;;;;;;;;5096624;28;20534;-72
2023/01/14 00:41:08;;;;;;;23.95;3.80;;;;;;;;;;5096371;28;20165;-72
2023/01/14 00:43:34;;;;;;;;;;;;;;;;;;5101467;28;20172;-72
2023/01/14 00:46:01;;;;;;;29.30;4.18;;;;;;;;;;5099136;28;20002;-73
2023/01/14 00:48:27;;;;;;;26.00;5.30;;;;;;;;;;5101782;28;20063;-73
2023/01/14 00:50:53;;;;;;;25.95;4.85;;;;;;;;;;5100732;28;20088;-72
2023/01/14 00:53:19;;;;;;;26.35;4.85;;;;;;;;;;5085261;28;20441;-70
2023/01/14 00:55:45;;;;;;;32.50;4.45;;;;;;;;;;5101914;27;20039;-73
2023/01/14 00:58:11;;;;;;;22.90;4.00;;;;;;;;;;5085769;27;20054;-73
2023/01/14 01:00:38;;;;;;;23.80;4.43;;;;;;;;;;5104726;27;20040;-72
2023/01/14 01:03:04;;;;;;;34.83;4.75;;;;;;;;;;5103998;27;20130;-73
2023/01/14 01:05:34;;;;;;;26.55;4.40;;;;;;;;;;5103877;27;20038;-73
2023/01/14 01:08:00;;;;;;;23.52;4.38;;;;;;;;;;5104061;27;20194;-72
2023/01/14 01:10:26;;;;;;;23.15;3.33;;;;;;;;;;5104605;27;20046;-73
2023/01/14 01:12:52;;;;;;;25.10;4.35;;;;;;;;;;5090338;28;20074;-73
2023/01/14 01:15:18;;;;;;;46.20;4.80;;;;;;;;;;5087265;28;20063;-72
2023/01/14 01:17:45;;;;;;;32.63;4.93;;;;;;;;;;5087338;27;20121;-72
2023/01/14 01:20:11;;;;;;;31.13;5.32;;;;;;;;;;5108513;27;20105;-72
2023/01/14 01:22:37;;;;;;;32.15;5.13;;;;;;;;;;5102341;27;20647;-73
2023/01/14 01:25:04;;;;;;;32.28;4.38;;;;;;;;;;5102284;27;20058;-73
2023/01/14 01:27:30;;;;;;;30.13;5.45;;;;;;;;;;5103057;27;20051;-72
2023/01/14 01:29:56;;;;;;;33.33;4.78;;;;;;;;;;5106020;27;20054;-73
2023/01/14 01:32:22;;;;;;;37.75;5.22;;;;;;;;;;5103663;27;20063;-72
2023/01/14 01:34:48;;;;;;;35.38;6.28;;;;;;;;;;5105399;27;20040;-73
2023/01/14 01:37:14;;;;;;;34.95;6.90;;;;;;;;;;5085845;28;20059;-72
2023/01/14 01:39:40;;;;;;;29.02;4.85;;;;;;;;;;5099699;27;20044;-73
2023/01/14 01:42:12;;;;;;;29.10;5.50;;;;;;;;;;5101781;27;20076;-73
2023/01/14 01:44:39;;;;;;;29.58;3.97;;;;;;;;;;5096782;28;20054;-73
2023/01/14 01:47:06;;;;;;;29.70;4.68;;;;;;;;;;5094085;27;20139;-73
2023/01/14 01:49:34;;;;;;;32.80;5.18;;;;;;;;;;5097015;28;20042;-72
2023/01/14 01:52:03;;;;;;;37.13;6.60;;;;;;;;;;5093612;27;20337;-73
2023/01/14 01:54:31;;;;;;;31.90;5.22;;;;;;;;;;5096155;28;20042;-73
2023/01/14 01:56:58;;;;;;;30.95;5.65;;;;;;;;;;5099899;28;20130;-72
2023/01/14 01:59:26;;;;;;;36.90;6.63;;;;;;;;;;5096769;28;20043;-72
2023/01/14 02:01:54;;;;;;;29.83;5.28;;;;;;;;;;5097667;28;20040;-73
2023/01/14 02:04:20;;;;;;;28.45;4.68;;;;;;;;;;5099649;28;20124;-72
2023/01/14 02:06:47;;;;;;;36.70;4.78;;;;;;;;;;5096650;28;20048;-72
2023/01/14 02:09:13;;;;;;;35.40;4.72;;;;;;;;;;5093606;28;20082;-73
2023/01/14 02:11:52;;;;;;;25.92;5.90;;;;;;;;;;5093337;28;20040;-72
2023/01/14 02:14:21;;;;;;;41.17;5.95;;;;;;;;;;5098240;28;20101;-72
2023/01/14 02:16:54;;;;;;;30.95;5.32;;;;;;;;;;5102223;28;20486;-72
2023/01/14 02:19:44;;;;;;;31.30;4.65;;;;;;;;;;5110412;27;20055;-72
2023/01/14 02:22:10;;;;;;;33.25;4.70;;;;;;;;;;5098090;28;20055;-72
2023/01/14 02:24:55;;;;;;;30.95;4.75;;;;;;;;;;5099789;28;20728;-73
2023/01/14 02:27:28;;;;;;;27.88;5.50;;;;;;;;;;5092145;28;20060;-72
2023/01/14 02:30:04;;;;;;;26.67;4.95;;;;;;;;;;5097815;28;20039;-72
2023/01/14 02:32:36;;;;;;;29.05;4.40;;;;;;;;;;5099535;28;20069;-72
2023/01/14 02:35:14;;;;;;;28.77;3.97;;;;;;;;;;5093074;28;20493;-72
2023/01/14 02:37:41;;;;;;;31.85;4.75;;;;;;;;;;5092372;28;20059;-72
2023/01/14 02:40:12;;;;;;;46.50;4.95;;;;;;;;;;5095659;27;20147;-72
2023/01/14 02:45:34;;;;;;;31.80;4.55;;;;;;;;;;5099363;28;20040;-72
2023/01/14 02:48:01;;;;;;;26.88;4.22;;;;;;;;;;5097185;27;20132;-72
2023/01/14 02:50:28;;;;;;;30.40;4.85;;;;;;;;;;5091821;27;20040;-72
2023/01/14 02:52:54;;;;;;;25.08;4.82;;;;;;;;;;5099274;28;20117;-72
2023/01/14 02:55:32;;;;;;;25.33;4.32;;;;;;;;;;5089316;28;20050;-72
2023/01/14 02:58:07;;;;;;;26.92;4.40;;;;;;;;;;5096467;28;20052;-72
2023/01/14 03:00:52;;;;;;;40.28;5.68;;;;;;;;;;5092314;28;20092;-72
2023/01/14 03:03:37;;;;;;;26.27;4.65;;;;;;;;;;5096420;28;20051;-72
2023/01/14 03:06:15;;;;;;;29.13;4.18;;;;;;;;;;5099128;27;20038;-72
2023/01/14 03:08:44;;;;;;;34.63;5.15;;;;;;;;;;5090281;28;20047;-72
2023/01/14 03:11:10;;;;;;;34.72;5.07;;;;;;;;;;5094601;28;20375;-72
2023/01/14 03:13:48;;;;;;;33.40;4.45;;;;;;;;;;5091629;28;20055;-72
2023/01/14 03:16:29;;;;;;;25.25;5.25;;;;;;;;;;5097512;27;20051;-72
2023/01/14 03:18:55;;;;;;;32.90;4.30;;;;;;;;;;5096186;28;20491;-72
2023/01/14 03:21:24;;;;;;;32.45;4.53;;;;;;;;;;5107303;27;20051;-72
2023/01/14 03:23:59;;;;;;;31.25;4.00;;;;;;;;;;5094259;28;20192;-72
2023/01/14 03:26:26;;;;;;;26.10;4.97;;;;;;;;;;5092543;27;20142;-72
2023/01/14 03:28:54;;;;;;;23.15;4.75;;;;;;;;;;5096227;28;20035;-73
2023/01/14 03:31:23;;;;;;;26.13;4.05;;;;;;;;;;5093529;28;20120;-72
2023/01/14 03:33:51;;;;;;;31.33;5.45;;;;;;;;;;5097779;27;20067;-72
2023/01/14 03:36:18;;;;;;;27.48;4.88;;;;;;;;;;5097922;28;20047;-72
2023/01/14 03:38:47;;;;;;;26.17;4.97;;;;;;;;;;5095494;28;20075;-72
2023/01/14 03:42:17;;;;;;;28.05;4.32;;;;;;;;;;5098907;28;20055;-72
2023/01/14 03:44:04;;;;;;;26.67;4.13;;;;;;;;;;5095499;28;20499;-72
2023/01/14 03:46:30;;;;;;;29.33;3.83;;;;;;;;;;5091890;28;20108;-71
2023/01/14 03:48:57;;;;;;;31.70;3.72;;;;;;;;;;5098463;28;20732;-71
2023/01/14 03:51:25;;;;;;;30.42;4.03;;;;;;;;;;5095820;28;20624;-71
2023/01/14 03:53:52;;;;;;;26.45;3.88;;;;;;;;;;5096611;28;20046;-72
2023/01/14 03:56:23;;;;;;;21.38;4.32;;;;;;;;;;5095691;28;20067;-72
2023/01/14 03:58:55;;;;;;;28.67;3.95;;;;;;;;;;5096887;28;20464;-72
2023/01/14 04:01:24;;;;;;;26.85;4.85;;;;;;;;;;5097257;28;20399;-72
2023/01/14 04:03:51;;;;;;;35.75;4.13;;;;;;;;;;5098899;28;20043;-71
2023/01/14 04:06:17;;;;;;;24.60;4.38;;;;;;;;;;5097866;28;20131;-71
2023/01/14 04:08:44;;;;;;;37.30;6.13;;;;;;;;;;5096502;28;21870;-71
2023/01/14 04:11:10;;;;;;;24.60;4.65;;;;;;;;;;5093252;28;20070;-71
2023/01/14 04:16:21;;;;;;;27.85;4.15;;;;;;;;;;5101183;28;20044;-71
2023/01/14 04:18:48;;;;;;;32.03;4.50;;;;;;;;;;5099748;28;20035;-71
2023/01/14 04:21:14;;;;;;;23.10;3.65;;;;;;;;;;5098673;28;20063;-71
2023/01/14 04:23:40;;;;;;;31.55;4.95;;;;;;;;;;5098693;28;20139;-72
2023/01/14 04:26:06;;;;;;;28.05;4.05;;;;;;;;;;5101816;27;20390;-72
2023/01/14 04:28:32;;;;;;;20.92;3.97;;;;;;;;;;5098410;28;20052;-72
2023/01/14 04:30:58;;;;;;;31.38;4.32;;;;;;;;;;5102834;28;20045;-72
2023/01/14 04:33:25;;;;;;;24.80;4.25;;;;;;;;;;5103452;28;20563;-72
2023/01/14 04:35:51;;;;;;;26.05;3.72;;;;;;;;;;5102920;28;20044;-73
2023/01/14 04:38:18;;;;;;;33.97;4.55;;;;;;;;;;5103657;27;20104;-73
2023/01/14 04:40:44;;;;;;;23.83;4.97;;;;;;;;;;5096445;28;20067;-72
2023/01/14 04:43:10;;;;;;;30.13;4.75;;;;;;;;;;5105249;28;20079;-73
2023/01/14 04:45:36;;;;;;;35.03;4.05;;;;;;;;;;5100577;28;20668;-73
2023/01/14 04:48:03;;;;;;;34.83;4.97;;;;;;;;;;5101789;28;20048;-73
2023/01/14 04:50:30;;;;;;;26.48;5.50;;;;;;;;;;5099592;27;20387;-73
2023/01/14 04:53:03;;;;;;;24.02;4.22;;;;;;;;;;5102386;27;20044;-73
2023/01/14 04:55:30;;;;;;;26.08;4.63;;;;;;;;;;5100520;28;20043;-73
2023/01/14 04:57:56;;;;;;;31.25;5.35;;;;;;;;;;5101517;28;20483;-73
2023/01/14 05:00:22;;;;;;;26.02;4.45;;;;;;;;;;5103157;28;20043;-73
2023/01/14 05:02:48;;;;;;;25.05;3.70;;;;;;;;;;5099878;28;20109;-73
2023/01/14 05:05:14;;;;;;;24.95;4.00;;;;;;;;;;5102112;28;20459;-73
2023/01/14 05:07:41;;;;;;;27.33;3.88;;;;;;;;;;5097278;28;20699;-73
2023/01/14 05:10:07;;;;;;;30.52;5.45;;;;;;;;;;5101119;28;20364;-73
2023/01/14 05:12:33;;;;;;;32.33;4.55;;;;;;;;;;5103198;28;20043;-73
2023/01/14 05:14:59;;;;;;;42.97;6.20;;;;;;;;;;5100940;28;20129;-73
2023/01/14 05:17:25;;;;;;;29.23;4.80;;;;;;;;;;5101522;28;20043;-74
2023/01/14 05:19:52;;;;;;;27.65;4.65;;;;;;;;;;5102856;28;20098;-73
2023/01/14 05:22:18;;;;;;;23.98;4.68;;;;;;;;;;5102868;28;20047;-73
2023/01/14 05:24:44;;;;;;;33.10;4.75;;;;;;;;;;5100630;28;20046;-73
2023/01/14 05:27:10;;;;;;;32.90;4.38;;;;;;;;;;5100370;28;20261;-73
2023/01/14 05:29:38;;;;;;;24.05;4.75;;;;;;;;;;5101999;28;20171;-73
2023/01/14 05:32:05;;;;;;;32.22;5.28;;;;;;;;;;5096450;28;20048;-74
2023/01/14 05:34:49;;;;;;;32.92;5.28;;;;;;;;;;5098913;28;20063;-73
2023/01/14 05:37:15;;;;;;;28.95;6.03;;;;;;;;;;5101712;28;20046;-73
2023/01/14 05:39:41;;;;;;;31.40;4.70;;;;;;;;;;5097505;28;20051;-73
2023/01/14 05:47:40;;;;;;;24.33;3.70;;;;;;;;;;5101586;28;20066;-73
2023/01/14 05:50:06;;;;;;;23.63;4.82;;;;;;;;;;5097740;28;20055;-73
2023/01/14 05:52:32;;;;;;;32.55;3.63;;;;;;;;;;5100228;28;20043;-73
2023/01/14 05:54:59;;;;;;;28.17;4.22;;;;;;;;;;5099878;27;20036;-73
2023/01/14 05:57:25;;;;;;;25.30;4.60;;;;;;;;;;5101367;27;20075;-73
2023/01/14 05:59:51;;;;;;;30.17;4.30;;;;;;;;;;5100669;28;20031;-73
2023/01/14 06:07:46;;;;;;;33.70;5.45;;;;;;;;;;5100195;27;20060;-72
2023/01/14 06:10:13;;;;;;;26.17;4.88;;;;;;;;;;5096230;28;20036;-73
2023/01/14 06:12:57;;;;;;;35.88;5.10;;;;;;;;;;5100919;28;20079;-73
2023/01/14 06:15:24;;;;;;;34.50;4.90;;;;;;;;;;5096294;28;20367;-73
2023/01/14 06:18:08;;;;;;;28.95;5.05;;;;;;;;;;5101301;28;20055;-73
2023/01/14 06:20:34;;;;;;;;;;;;;;;;;;5100496;28;20043;-73
2023/01/14 06:23:00;;;;;;;27.75;7.18;;;;;;;;;;5095904;28;19930;-73
2023/01/14 06:25:28;;;;;;;32.42;5.57;;;;;;;;;;5100262;28;20108;-73
2023/01/14 06:27:56;;;;;;;20.98;5.07;;;;;;;;;;5102509;28;20032;-73
2023/01/14 06:30:22;;;;;;;32.70;5.40;;;;;;;;;;5101993;28;20075;-73
2023/01/14 06:32:48;;;;;;;45.20;5.63;;;;;;;;;;5099103;28;20218;-73
2023/01/14 06:35:14;;;;;;;29.55;5.47;;;;;;;;;;5099530;28;21002;-73
2023/01/14 06:37:45;;;;;;;29.63;4.80;;;;;;;;;;5101411;27;20140;-73
2023/01/14 06:40:12;;;;;;;27.17;5.47;;;;;;;;;;5098963;28;20540;-73
2023/01/14 06:42:40;;;;;;;28.85;5.25;;;;;;;;;;5101147;28;20380;-73
2023/01/14 06:45:07;;;;;;;24.25;5.15;;;;;;;;;;5100587;28;20035;-73
2023/01/14 06:47:33;;;;;;;33.25;5.55;;;;;;;;;;5095138;28;20506;-73
2023/01/14 06:49:59;;;;;;;29.15;4.85;;;;;;;;;;5093857;28;20051;-74
2023/01/14 06:52:25;;;;;;;35.08;6.40;;;;;;;;;;5100451;28;20063;-72
2023/01/14 06:54:53;;;;;;;34.03;6.10;;;;;;;;;;5098400;28;20071;-72
2023/01/14 06:57:20;;;;;;;35.00;6.30;;;;;;;;;;5099256;28;20539;-72
2023/01/14 06:59:46;;;;;;;36.88;6.65;;;;;;;;;;5094548;28;20101;-72
2023/01/14 07:02:13;;;;;;;35.58;6.18;;;;;;;;;;5100926;28;20047;-72
2023/01/14 07:04:39;;;;;;;47.30;9.13;;;;;;;;;;5099529;28;20044;-72
2023/01/14 07:07:05;;;;;;;37.72;7.97;;;;;;;;;;5100955;28;20040;-72
2023/01/14 07:09:32;;;;;;;38.75;7.82;;;;;;;;;;5094996;28;20479;-71
2023/01/14 07:11:58;;;;;;;32.05;7.95;;;;;;;;;;5101383;28;20052;-73
2023/01/14 07:14:24;;;;;;;45.30;8.88;;;;;;;;;;5098843;28;20084;-72
2023/01/14 07:16:50;;;;;;;47.55;10.27;;;;;;;;;;5100205;28;20052;-72
2023/01/14 07:19:17;;;;;;;49.13;8.95;;;;;;;;;;5099839;28;20039;-72
2023/01/14 07:21:43;;;;;;;39.50;8.95;;;;;;;;;;5101070;28;20038;-72
2023/01/14 07:24:11;;;;;;;49.67;10.88;;;;;;;;;;5099419;28;20083;-72
2023/01/14 07:26:37;;;;;;;49.45;9.70;;;;;;;;;;5110227;27;20047;-72
2023/01/14 07:29:03;;;;;;;41.35;8.43;;;;;;;;;;5091804;28;20040;-72
2023/01/14 07:31:29;;;;;;;43.10;9.65;;;;;;;;;;5097287;28;20122;-72
2023/01/14 07:33:56;;;;;;;35.65;9.98;;;;;;;;;;5103210;28;20090;-72
2023/01/14 07:36:22;;;;;;;37.60;9.07;;;;;;;;;;5092956;28;20036;-72
2023/01/14 07:38:48;;;;;;;34.72;8.82;;;;;;;;;;5107242;28;20486;-72
2023/01/14 07:41:18;;;;;;;45.50;9.35;;;;;;;;;;5101949;28;20475;-72
2023/01/14 07:43:45;;;;;;;44.20;10.10;;;;;;;;;;5098533;28;20126;-72
2023/01/14 07:46:11;;;;;;;49.78;11.63;;;;;;;;;;5099686;28;20161;-72
2023/01/14 07:48:37;;;;;;;48.40;9.38;;;;;;;;;;5098561;28;20047;-72
2023/01/14 07:51:04;;;;;;;34.35;9.43;;;;;;;;;;5097857;28;20043;-72
2023/01/14 07:53:30;;;;;;;43.53;9.30;;;;;;;;;;5103455;28;20051;-72
2023/01/14 07:55:57;;;;;;;48.97;8.85;;;;;;;;;;5104899;28;20463;-70
2023/01/14 07:58:23;;;;;;;47.78;10.10;;;;;;;;;;5105109;28;20187;-70
2023/01/14 08:00:49;;;;;;;44.88;8.32;;;;;;;;;;5105915;28;20035;-70
2023/01/14 08:03:15;;;;;;;48.80;10.18;;;;;;;;;;5098882;28;20093;-70
2023/01/14 08:05:42;;;;;;;43.13;8.07;;;;;;;;;;5110558;28;20035;-70
2023/01/14 08:08:08;;;;;;;43.10;8.90;;;;;;;;;;5086575;28;20041;-70
2023/01/14 08:10:34;;;;;;;48.13;9.02;;;;;;;;;;5107091;28;20501;-71
2023/01/14 08:13:00;;;;;;;37.40;9.63;;;;;;;;;;5108661;27;20123;-71
2023/01/14 08:15:26;;;;;;;48.15;8.73;;;;;;;;;;5098897;27;20054;-71
2023/01/14 08:17:54;;;;;;;49.25;8.73;;;;;;;;;;5102105;27;20478;-71
2023/01/14 08:20:22;;;;;;;42.60;8.20;;;;;;;;;;5095186;28;20039;-71
2023/01/14 08:22:49;;;;;;;42.97;8.00;;;;;;;;;;5109577;28;20047;-70
2023/01/14 08:25:15;;;;;;;38.20;7.18;;;;;;;;;;5108805;28;20354;-71
2023/01/14 08:27:42;;;;;;;48.75;9.48;;;;;;;;;;5100228;27;20130;-71
2023/01/14 08:30:08;;;;;;;54.97;10.38;;;;;;;;;;5095206;28;20442;-71
2023/01/14 08:32:35;;;;;;;47.17;6.13;;;;;;;;;;5093050;28;20054;-71
2023/01/14 08:35:01;;;;;;;42.50;6.60;;;;;;;;;;5096740;28;20423;-71
2023/01/14 08:37:27;;;;;;;41.83;6.65;;;;;;;;;;5104188;28;20473;-72
2023/01/14 08:39:54;;;;;;;40.28;7.47;;;;;;;;;;5082209;28;20040;-70
2023/01/14 08:42:20;;;;;;;52.10;7.65;;;;;;;;;;5080032;27;20060;-71
2023/01/14 08:44:46;;;;;;;35.67;6.93;;;;;;;;;;5109043;27;20040;-71
2023/01/14 08:47:12;;;;;;;40.13;7.25;;;;;;;;;;5085348;28;20597;-72
2023/01/14 08:49:39;;;;;;;37.17;6.25;;;;;;;;;;5108431;27;20059;-72
2023/01/14 08:52:05;;;;;;;33.70;6.30;;;;;;;;;;5110932;27;20077;-73
2023/01/14 08:54:31;;;;;;;38.05;6.80;;;;;;;;;;5100939;28;20036;-70
2023/01/14 08:56:57;;;;;;;27.85;5.97;;;;;;;;;;5109916;28;20490;-70
2023/01/14 08:59:24;;;;;;;45.00;6.80;;;;;;;;;;5110939;27;20074;-71
2023/01/14 09:01:50;;;;;;;41.47;7.15;;;;;;;;;;5106714;27;20051;-71
2023/01/14 09:04:16;;;;;;;38.17;7.05;;;;;;;;;;5105196;28;20043;-70
2023/01/14 09:18:08;;;;;;;40.85;7.18;;;;;;;;;;5108059;28;20063;-70
2023/01/14 09:20:36;;;;;;;45.25;7.10;;;;;;;;;;5103422;28;20121;-70
2023/01/14 09:23:02;;;;;;;36.25;6.30;;;;;;;;;;5095306;28;20490;-70
2023/01/14 09:25:29;;;;;;;36.33;7.70;;;;;;;;;;5108655;28;20054;-71
2023/01/14 09:27:55;;;;;;;34.63;7.30;;;;;;;;;;5100298;27;20048;-71
2023/01/14 09:30:22;;;;;;;31.05;5.70;;;;;;;;;;5092144;28;20060;-69
2023/01/14 09:32:48;;;;;;;35.83;6.95;;;;;;;;;;5105292;28;20050;-71
2023/01/14 09:35:14;;;;;;;33.85;6.88;;;;;;;;;;5096321;28;20510;-71
2023/01/14 09:37:40;;;;;;;31.75;6.70;;;;;;;;;;5106700;28;20047;-72
2023/01/14 09:40:07;;;;;;;27.38;5.22;;;;;;;;;;5106290;28;20398;-74
2023/01/14 09:42:41;;;;;;;27.27;6.10;;;;;;;;;;5105034;28;20489;-72
2023/01/14 09:45:14;;;;;;;30.20;6.55;;;;;;;;;;5103596;27;20046;-79
2023/01/14 09:47:40;;;;;;;29.88;6.93;;;;;;;;;;5105413;27;20098;-71
2023/01/14 09:50:08;;;;;;;21.15;5.65;;;;;;;;;;5106914;28;20514;-71
2023/01/14 09:52:45;;;;;;;34.00;5.65;;;;;;;;;;5094529;28;20056;-71
2023/01/14 09:55:11;;;;;;;24.08;5.65;;;;;;;;;;5106317;28;20486;-71
2023/01/14 09:57:47;;;;;;;31.35;5.72;;;;;;;;;;5094993;28;20556;-71
2023/01/14 10:00:26;;;;;;;20.30;5.50;;;;;;;;;;5105915;27;20422;-71
2023/01/14 10:02:57;;;;;;;18.10;4.70;;;;;;;;;;5104845;27;20395;-71
2023/01/14 10:05:27;;;;;;;28.08;6.60;;;;;;;;;;5103761;28;20089;-71
2023/01/14 10:07:54;;;;;;;22.17;5.20;;;;;;;;;;5093767;28;20044;-71
2023/01/14 10:10:25;;;;;;;19.65;4.78;;;;;;;;;;5106788;28;20080;-76
2023/01/14 10:12:52;;;;;;;24.55;5.43;;;;;;;;;;5104310;28;20042;-71
2023/01/14 10:15:19;;;;;;;27.45;6.03;;;;;;;;;;5105875;28;20043;-71
2023/01/14 10:17:50;;;;;;;26.42;4.90;;;;;;;;;;5101373;28;20471;-71
2023/01/14 10:20:21;;;;;;;24.80;5.95;;;;;;;;;;5105355;28;20211;-71
2023/01/14 10:22:57;;;;;;;20.92;5.05;;;;;;;;;;5104453;28;20051;-71
2023/01/14 10:25:23;;;;;;;19.67;4.80;;;;;;;;;;5092470;28;20044;-71
2023/01/14 10:27:52;;;;;;;14.80;4.95;;;;;;;;;;5106849;28;20047;-71
2023/01/14 10:30:21;;;;;;;17.50;5.25;;;;;;;;;;5103858;28;20884;-71
2023/01/14 10:32:50;;;;;;;20.45;5.30;;;;;;;;;;5093722;28;20075;-71
2023/01/14 10:35:18;;;;;;;21.20;5.10;;;;;;;;;;5106106;28;20047;-71
2023/01/14 10:37:44;;;;;;;19.38;5.13;;;;;;;;;;5102844;28;20047;-71
2023/01/14 10:40:18;;;;;;;13.35;3.78;;;;;;;;;;5093868;28;20054;-71
2023/01/14 10:42:44;;;;;;;9.52;5.05;;;;;;;;;;5105852;27;20134;-71
2023/01/14 10:45:11;;;;;;;14.95;4.53;;;;;;;;;;5101503;28;20530;-71
2023/01/14 10:47:38;;;;;;;11.40;3.50;;;;;;;;;;5105512;28;20333;-71
2023/01/14 10:50:20;;;;;;;12.98;4.00;;;;;;;;;;5106853;28;20041;-71
2023/01/14 10:52:46;;;;;;;10.25;3.88;;;;;;;;;;5092899;28;20051;-71
2023/01/14 10:55:12;;;;;;;12.05;4.22;;;;;;;;;;5107212;28;20552;-71
2023/01/14 10:57:40;;;;;;;12.55;5.32;;;;;;;;;;5094332;28;20055;-71
2023/01/14 11:00:08;;;;;;;12.25;3.58;;;;;;;;;;5099623;28;20240;-79
2023/01/14 11:02:48;;;;;;;10.15;3.90;;;;;;;;;;5093081;28;20103;-71
2023/01/14 11:05:25;;;;;;;10.93;4.18;;;;;;;;;;5107301;28;20035;-70
2023/01/14 11:07:52;;;;;;;12.35;4.38;;;;;;;;;;5106782;28;20589;-70
2023/01/14 11:10:20;;;;;;;13.45;4.25;;;;;;;;;;5107242;28;20096;-70
2023/01/14 11:12:46;;;;;;;9.13;4.28;;;;;;;;;;5106464;28;20043;-71
2023/01/14 11:15:31;;;;;;;10.43;4.43;;;;;;;;;;5089496;28;20040;-71
2023/01/14 11:18:15;;;;;;;12.38;4.18;;;;;;;;;;5092897;28;20054;-71
2023/01/14 11:20:41;;;;;;;14.63;4.20;;;;;;;;;;5104509;28;20134;-71
2023/01/14 11:23:14;;;;;;;11.75;3.58;;;;;;;;;;5097043;27;20054;-71
2023/01/14 11:25:41;;;;;;;13.05;4.50;;;;;;;;;;5097139;28;20048;-70
2023/01/14 11:28:08;;;;;;;10.10;3.78;;;;;;;;;;5093035;28;20071;-72
2023/01/14 11:30:34;;;;;;;8.95;3.63;;;;;;;;;;5096082;28;20077;-81
2023/01/14 11:33:01;;;;;;;10.30;4.25;;;;;;;;;;5107959;28;20134;-72
2023/01/14 11:35:32;;;;;;;13.18;4.45;;;;;;;;;;5105905;28;20043;-72
2023/01/14 11:37:59;;;;;;;16.08;3.72;;;;;;;;;;5106916;28;20043;-71
2023/01/14 11:41:28;;;;;;;10.52;3.97;;;;;;;;;;5106846;28;20498;-70
2023/01/14 11:43:14;;;;;;;11.32;4.40;;;;;;;;;;5106094;28;20465;-71
2023/01/14 11:45:40;;;;;;;10.73;3.88;;;;;;;;;;5096604;28;20123;-70
2023/01/14 11:48:25;;;;;;;13.48;4.05;;;;;;;;;;5092522;28;20040;-71
2023/01/14 11:50:57;;;;;;;11.95;4.50;;;;;;;;;;5103197;28;20092;-71
2023/01/14 11:53:26;;;;;;;15.32;4.30;;;;;;;;;;5106509;28;20104;-71
2023/01/14 11:55:55;;;;;;;10.48;4.50;;;;;;;;;;5106313;28;20050;-72
2023/01/14 11:58:22;;;;;;;9.25;3.55;;;;;;;;;;5095683;28;20043;-71
2023/01/14 12:00:49;;;;;;;11.27;4.43;;;;;;;;;;5091899;28;20119;-71
2023/01/14 12:03:35;;;;;;;8.13;3.83;;;;;;;;;;5108659;28;20420;-71
2023/01/14 12:06:05;;;;;;;10.82;3.88;;;;;;;;;;5093151;28;20052;-71
2023/01/14 12:08:32;;;;;;;11.25;3.95;;;;;;;;;;5104604;28;20140;-71
2023/01/14 12:11:01;;;;;;;9.38;3.38;;;;;;;;;;5106627;28;20044;-71
2023/01/14 12:19:09;;;;;;;10.60;3.40;;;;;;;;;;5104360;28;20135;-71
2023/01/14 12:21:38;;;;;;;8.93;3.42;;;;;;;;;;5093601;28;20048;-70
2023/01/14 12:24:07;;;;;;;6.65;3.33;;;;;;;;;;5094174;28;20048;-71
2023/01/14 12:26:37;;;;;;;5.50;2.85;;;;;;;;;;5104457;28;20031;-71
2023/01/14 12:29:06;;;;;;;10.13;3.17;;;;;;;;;;5104336;28;20047;-70
2023/01/14 12:31:36;;;;;;;8.27;3.45;;;;;;;;;;5089533;28;20445;-72
2023/01/14 12:34:10;;;;;;;8.20;3.45;;;;;;;;;;5102112;28;20093;-71
2023/01/14 12:36:40;;;;;;;7.60;3.30;;;;;;;;;;5090057;28;20105;-71
2023/01/14 12:47:27;;;;;;;8.85;3.33;;;;;;;;;;5106476;28;20458;-71
2023/01/14 12:49:54;;;;;;;8.35;2.55;;;;;;;;;;5109403;28;20047;-71
2023/01/14 12:52:38;;;;;;;4.97;2.65;;;;;;;;;;5096121;28;20518;-71
2023/01/14 12:55:06;;;;;;;6.45;3.17;;;;;;;;;;5109890;28;20036;-71
2023/01/14 12:57:36;;;;;;;8.82;3.95;;;;;;;;;;5110655;28;20547;-71
2023/01/14 13:00:06;;;;;;;9.77;3.47;;;;;;;;;;5097592;28;20357;-71
2023/01/14 13:02:39;;;;;;;8.40;2.85;;;;;;;;;;5097555;28;20048;-71
2023/01/14 13:05:08;;;;;;;6.18;2.88;;;;;;;;;;5094866;28;20040;-71
2023/01/14 13:07:37;;;;;;;4.80;2.17;;;;;;;;;;5109255;28;20032;-71
2023/01/14 13:10:06;;;;;;;5.68;2.70;;;;;;;;;;5109731;28;20482;-71
2023/01/14 13:12:33;;;;;;;4.75;1.75;;;;;;;;;;5109715;28;20036;-71
2023/01/14 13:15:05;;;;;;;5.43;2.33;;;;;;;;;;5097855;28;20071;-71
2023/01/14 13:17:35;;;;;;;8.20;2.75;;;;;;;;;;5109159;28;20040;-71
2023/01/14 13:20:03;;;;;;;6.88;2.40;;;;;;;;;;5110627;28;20093;-71
2023/01/14 13:22:40;;;;;;;5.82;2.58;;;;;;;;;;5094500;28;20396;-71
2023/01/14 13:25:08;;;;;;;5.53;2.58;;;;;;;;;;5096373;28;20040;-71
2023/01/14 13:27:41;;;;;;;5.63;2.47;;;;;;;;;;5109637;28;20402;-71
2023/01/14 13:30:17;;;;;;;4.93;2.75;;;;;;;;;;5092874;28;20079;-75
2023/01/14 13:33:04;;;;;;;7.57;2.78;;;;;;;;;;5109072;28;20062;-75
2023/01/14 13:35:31;;;;;;;5.78;3.45;;;;;;;;;;5097986;28;20040;-74
2023/01/14 13:38:01;;;;;;;6.78;3.35;;;;;;;;;;5098194;28;20510;-74
2023/01/14 13:40:29;;;;;;;6.25;3.17;;;;;;;;;;5094062;28;20036;-74
2023/01/14 13:43:01;;;;;;;6.53;4.03;;;;;;;;;;5092827;28;20048;-74
2023/01/14 13:45:29;;;;;;;8.27;4.30;;;;;;;;;;5096850;28;20119;-75
2023/01/14 13:47:58;;;;;;;7.97;3.47;;;;;;;;;;5109173;28;20046;-74
2023/01/14 13:50:26;;;;;;;9.50;3.97;;;;;;;;;;5107900;27;20057;-73
2023/01/14 13:52:56;;;;;;;6.43;4.03;;;;;;;;;;5099218;28;20111;-72
2023/01/14 13:55:23;;;;;;;6.63;4.18;;;;;;;;;;5110390;28;20067;-72
2023/01/14 13:57:52;;;;;;;9.75;4.53;;;;;;;;;;5109528;27;20047;-71
2023/01/14 14:00:18;;;;;;;6.55;4.05;;;;;;;;;;5104432;28;20043;-72
2023/01/14 14:02:49;;;;;;;7.95;4.35;;;;;;;;;;5107487;28;20398;-72
2023/01/14 14:05:18;;;;;;;8.73;4.60;;;;;;;;;;5106487;28;20031;-72
2023/01/14 14:07:44;;;;;;;9.57;4.40;;;;;;;;;;5106278;28;20093;-73
2023/01/14 14:10:11;;;;;;;8.90;4.72;;;;;;;;;;5104642;28;20035;-73
2023/01/14 14:15:26;;;;;;;9.35;4.80;;;;;;;;;;5105768;28;20040;-74
2023/01/14 14:17:53;;;;;;;11.35;4.00;;;;;;;;;;5105621;27;20043;-74
2023/01/14 14:20:20;;;;;;;8.38;4.45;;;;;;;;;;5092553;28;20044;-72
2023/01/14 14:22:52;;;;;;;5.85;3.70;;;;;;;;;;5107394;28;20491;-73
2023/01/14 14:25:21;;;;;;;9.27;4.28;;;;;;;;;;5095957;28;20043;-74
2023/01/14 14:27:48;;;;;;;7.40;4.03;;;;;;;;;;5099327;27;20134;-72
2023/01/14 14:30:26;;;;;;;8.13;4.25;;;;;;;;;;5107910;28;20391;-73
2023/01/14 14:32:52;;;;;;;6.82;4.05;;;;;;;;;;5095496;28;20043;-73
2023/01/14 14:35:20;;;;;;;7.25;4.38;;;;;;;;;;5106643;28;20070;-72
2023/01/14 14:37:48;;;;;;;5.65;3.58;;;;;;;;;;5106342;28;20054;-73
2023/01/14 14:40:18;;;;;;;6.60;3.78;;;;;;;;;;5093065;28;20055;-73
2023/01/14 14:42:44;;;;;;;8.82;4.15;;;;;;;;;;5108267;28;20098;-73
2023/01/14 14:45:25;;;;;;;7.43;3.83;;;;;;;;;;5108425;27;20101;-73
2023/01/14 14:47:52;;;;;;;9.48;4.07;;;;;;;;;;5098539;28;20603;-76
2023/01/14 14:50:36;;;;;;;7.88;4.28;;;;;;;;;;5098907;28;20043;-74
2023/01/14 14:53:02;;;;;;;8.07;4.43;;;;;;;;;;5111639;28;20085;-74
2023/01/14 14:55:32;;;;;;;8.82;4.65;;;;;;;;;;5110860;28;20040;-74
2023/01/14 14:57:59;;;;;;;8.18;4.80;;;;;;;;;;5098777;28;20486;-73
2023/01/14 15:00:26;;;;;;;8.35;4.60;;;;;;;;;;5106958;28;20031;-73
2023/01/14 15:02:55;;;;;;;12.52;5.00;;;;;;;;;;5097338;28;20035;-74
2023/01/14 15:05:22;;;;;;;9.75;4.53;;;;;;;;;;5107003;28;20470;-73
2023/01/14 15:07:49;;;;;;;9.15;4.72;;;;;;;;;;5094560;28;20131;-73
2023/01/14 15:10:16;;;;;;;8.02;4.78;;;;;;;;;;5107485;28;20038;-73
2023/01/14 15:12:43;;;;;;;11.52;5.25;;;;;;;;;;5108081;28;20100;-73
2023/01/14 15:15:18;;;;;;;10.07;6.25;;;;;;;;;;5107095;28;20460;-72
2023/01/14 15:17:46;;;;;;;8.30;5.13;;;;;;;;;;5108474;28;20044;-73
2023/01/14 15:20:13;;;;;;;14.15;6.72;;;;;;;;;;5106963;28;20111;-73
2023/01/14 15:22:40;;;;;;;11.73;6.40;;;;;;;;;;5108635;28;20075;-74
2023/01/14 15:25:11;;;;;;;10.75;6.00;;;;;;;;;;5110801;28;20039;-74
2023/01/14 15:27:37;;;;;;;9.23;5.57;;;;;;;;;;5109614;28;20040;-73